Time;durP1;ratioP1;P1;durP2;ratioP2;P2;SDS_P1;SDS_P2;PMS_P1;PMS_P2;Temp;Humidity;BMP_temperature;BMP_pressure;BME280_temperature;BME280_humidity;BME280_pressure;Samples;Min_cycle;Max_cycle;Signal;HPM_P1;HPM_P2
2023/04/03 00:00:29;;;;;;;;;;;;;;;5.98;71.29;94567.31;4955430;29;1054;-53
2023/04/03 00:02:55;;;;;;;;;;;;;;;5.92;71.57;94574.00;4955050;29;1097;-53
2023/04/03 00:05:21;;;;;;;;;;;;;;;6.12;71.03;94573.94;4955457;29;1430;-53
2023/04/03 00:07:49;;;;;;;;;;;;;;;6.02;71.33;94580.13;4955104;29;1048;-53
2023/04/03 00:10:15;;;;;;;;;;;;;;;6.03;71.28;94565.00;4919111;29;1274;-53
2023/04/03 00:12:41;;;;;;;;;;;;;;;6.02;71.95;94569.50;4936277;29;976;-53
2023/04/03 00:15:07;;;;;;;;;;;;;;;5.90;71.28;94562.69;4936087;29;1017;-53
2023/04/03 00:17:34;;;;;;;;;;;;;;;6.19;70.51;94564.38;4935990;29;1911;-53
2023/04/03 00:20:00;;;;;;;;;;;;;;;6.19;71.07;94565.22;4936026;29;1059;-53
2023/04/03 00:22:28;;;;;;;;;;;;;;;5.79;70.00;94565.53;4935819;29;945;-53
2023/04/03 00:24:54;;;;;;;;;;;;;;;5.74;71.28;94555.34;4935667;29;1063;-53
2023/04/03 00:27:20;;;;;;;;;;;;;;;5.72;73.03;94565.28;4935764;29;1098;-53
2023/04/03 00:29:46;;;;;;;;;;;;;;;5.61;71.98;94568.94;4935875;29;1011;-53
2023/04/03 00:32:12;;;;;;;;;;;;;;;5.60;71.71;94569.94;4935623;29;1028;-53
2023/04/03 00:34:38;;;;;;;;;;;;;;;5.57;72.31;94569.38;4935832;29;1046;-53
2023/04/03 00:37:05;;;;;;;;;;;;;;;5.84;71.59;94568.56;4935813;29;1911;-53
2023/04/03 00:39:31;;;;;;;;;;;;;;;5.99;71.06;94577.75;4935676;29;1039;-53
2023/04/03 00:41:57;;;;;;;;;;;;;;;6.10;70.88;94566.09;4935592;29;1094;-53
2023/04/03 00:44:32;;;;;;;;;;;;;;;6.09;71.61;94571.56;4935465;29;1312;-53
2023/04/03 00:46:58;;;;;;;;;;;;;;;5.63;70.13;94567.00;4935615;29;976;-53
2023/04/03 00:49:25;;;;;;;;;;;;;;;5.56;72.22;94568.56;4935570;29;1114;-54
2023/04/03 00:51:51;;;;;;;;;;;;;;;5.61;72.63;94563.63;4935448;29;1071;-53
2023/04/03 00:54:17;;;;;;;;;;;;;;;5.60;71.93;94561.16;4935599;29;1038;-53
2023/04/03 00:56:44;;;;;;;;;;;;;;;5.35;72.52;94567.91;4935661;29;1911;-53
2023/04/03 00:59:12;;;;;;;;;;;;;;;5.21;73.42;94577.16;4935521;29;1043;-53
2023/04/03 01:01:39;;;;;;;;;;;;;;;4.87;74.13;94583.72;4937712;29;1031;-53
2023/04/03 01:04:05;;;;;;;;;;;;;;;4.86;74.73;94584.72;4939398;29;1215;-53
2023/04/03 01:06:36;;;;;;;;;;;;;;;5.09;74.36;94579.13;4939250;29;1085;-53
2023/04/03 01:09:03;;;;;;;;;;;;;;;5.37;73.54;94580.06;4948832;29;1192;-53
2023/04/03 01:11:29;;;;;;;;;;;;;;;5.45;72.95;94576.69;4958404;29;1046;-53
2023/04/03 01:13:55;;;;;;;;;;;;;;;5.58;72.46;94571.91;4958137;29;1018;-53
2023/04/03 01:16:21;;;;;;;;;;;;;;;5.35;71.91;94584.66;4957934;29;1910;-53
2023/04/03 01:18:47;;;;;;;;;;;;;;;5.09;73.37;94581.78;4958018;29;1098;-53
2023/04/03 01:21:32;;;;;;;;;;;;;;;5.08;74.08;94578.28;4958295;29;963;-53
2023/04/03 01:24:04;;;;;;;;;;;;;;;4.99;73.41;94570.34;4957926;29;948;-53
2023/04/03 01:26:30;;;;;;;;;;;;;;;4.67;74.41;94572.31;4958103;29;1289;-53
2023/04/03 01:28:58;;;;;;;;;;;;;;;4.80;74.85;94571.19;4957935;29;1036;-53
2023/04/03 01:31:26;;;;;;;;;;;;;;;5.00;74.27;94566.72;4957844;29;1057;-51
2023/04/03 01:33:53;;;;;;;;;;;;;;;5.06;74.13;94569.63;4957732;29;1026;-53
2023/04/03 01:36:21;;;;;;;;;;;;;;;5.18;74.03;94565.03;4957733;29;1906;-53
2023/04/03 01:38:48;;;;;;;;;;;;;;;5.15;74.33;94561.81;4957818;29;972;-53
2023/04/03 01:41:15;;;;;;;;;;;;;;;5.12;73.68;94562.09;4957932;29;1059;-53
2023/04/03 01:43:42;;;;;;;;;;;;;;;5.13;73.70;94564.59;4957560;29;1318;-53
2023/04/03 01:46:08;;;;;;;;;;;;;;;5.14;73.72;94568.09;4957803;29;987;-53
2023/04/03 01:48:34;;;;;;;;;;;;;;;4.98;74.24;94576.63;4957807;29;1265;-53
2023/04/03 01:51:00;;;;;;;;;;;;;;;4.86;74.29;94560.06;4957686;29;1043;-53
2023/04/03 01:53:26;;;;;;;;;;;;;;;4.87;74.20;94565.19;4957700;29;1050;-53
2023/04/03 01:55:52;;;;;;;;;;;;;;;4.94;74.33;94560.19;4957399;29;1996;-53
2023/04/03 01:58:18;;;;;;;;;;;;;;;4.74;74.49;94564.63;4957289;29;1866;-53
2023/04/03 02:00:45;;;;;;;;;;;;;;;4.63;75.40;94559.47;4957348;29;1065;-53
2023/04/03 02:03:11;;;;;;;;;;;;;;;4.77;75.02;94560.88;4957229;29;1031;-53
2023/04/03 02:05:37;;;;;;;;;;;;;;;4.50;75.30;94565.91;4957551;29;1008;-52
2023/04/03 02:08:03;;;;;;;;;;;;;;;4.36;75.90;94562.81;4955110;29;1879;-53
2023/04/03 02:10:29;;;;;;;;;;;;;;;4.50;76.09;94568.53;4938166;29;1062;-53
2023/04/03 02:12:56;;;;;;;;;;;;;;;4.77;75.72;94560.88;4937476;29;1095;-53
2023/04/03 02:15:22;;;;;;;;;;;;;;;5.03;75.27;94555.84;4937960;29;1019;-53
2023/04/03 02:17:48;;;;;;;;;;;;;;;4.96;74.45;94554.75;4937676;29;1914;-53
2023/04/03 02:20:14;;;;;;;;;;;;;;;4.58;74.67;94561.72;4938066;29;1095;-52
2023/04/03 02:22:40;;;;;;;;;;;;;;;4.57;75.31;94555.59;4937734;29;1039;-53
2023/04/03 02:25:06;;;;;;;;;;;;;;;4.32;75.80;94556.97;4937821;29;960;-53
2023/04/03 02:27:32;;;;;;;;;;;;;;;4.18;76.26;94552.91;4937796;29;983;-53
2023/04/03 02:29:58;;;;;;;;;;;;;;;4.02;76.85;94550.81;4937866;29;1059;-53
2023/04/03 02:32:24;;;;;;;;;;;;;;;4.32;76.38;94540.25;4937434;29;1098;-53
2023/04/03 02:34:50;;;;;;;;;;;;;;;4.27;76.12;94548.63;4937745;29;1035;-53
2023/04/03 02:37:16;;;;;;;;;;;;;;;4.20;76.91;94544.84;4937419;29;1910;-53
2023/04/03 02:39:42;;;;;;;;;;;;;;;4.41;76.69;94545.53;4937540;29;1067;-53
2023/04/03 02:42:08;;;;;;;;;;;;;;;4.59;76.38;94537.75;4937400;29;1040;-53
2023/04/03 02:44:35;;;;;;;;;;;;;;;4.54;75.85;94547.09;4937263;29;1103;-53
2023/04/03 02:47:01;;;;;;;;;;;;;;;4.55;75.83;94530.22;4937150;29;1015;-53
2023/04/03 02:49:28;;;;;;;;;;;;;;;4.65;75.19;94525.78;4937255;29;1025;-53
2023/04/03 02:51:54;;;;;;;;;;;;;;;4.40;75.90;94525.38;4937097;29;1102;-53
2023/04/03 02:54:21;;;;;;;;;;;;;;;4.35;76.15;94530.22;4937380;29;984;-53
2023/04/03 02:56:47;;;;;;;;;;;;;;;4.47;76.31;94528.28;4936990;29;1911;-53
2023/04/03 02:59:14;;;;;;;;;;;;;;;4.48;76.05;94530.78;4937118;29;928;-52
2023/04/03 03:01:40;;;;;;;;;;;;;;;4.49;76.33;94524.50;4936981;29;1840;-53
2023/04/03 03:04:06;;;;;;;;;;;;;;;4.55;76.32;94515.16;4937157;29;987;-53
2023/04/03 03:06:32;;;;;;;;;;;;;;;4.19;76.45;94527.28;4936924;29;1102;-53
2023/04/03 03:08:58;;;;;;;;;;;;;;;4.28;77.29;94514.06;4946047;29;1283;-53
2023/04/03 03:11:25;;;;;;;;;;;;;;;4.45;76.74;94517.81;4956090;29;984;-53
2023/04/03 03:13:51;;;;;;;;;;;;;;;4.26;76.80;94515.16;4956157;29;1063;-53
2023/04/03 03:16:17;;;;;;;;;;;;;;;4.32;77.08;94514.63;4955867;29;1991;-53
2023/04/03 03:18:43;;;;;;;;;;;;;;;4.39;77.01;94515.75;4955709;29;1027;-53
2023/04/03 03:21:10;;;;;;;;;;;;;;;4.37;77.63;94512.41;4956145;29;1259;-53
2023/04/03 03:23:36;;;;;;;;;;;;;;;4.48;77.40;94514.09;4955422;28;1000;-53
2023/04/03 03:26:04;;;;;;;;;;;;;;;4.39;77.69;94513.09;4955911;29;1013;-53
2023/04/03 03:28:30;;;;;;;;;;;;;;;4.35;77.26;94517.00;4955989;29;1041;-53
2023/04/03 03:30:56;;;;;;;;;;;;;;;4.53;77.57;94511.00;4955802;29;1005;-53
2023/04/03 03:33:22;;;;;;;;;;;;;;;4.52;77.28;94522.56;4955880;29;1035;-53
2023/04/03 03:35:48;;;;;;;;;;;;;;;4.39;77.98;94521.03;4955635;29;1915;-53
2023/04/03 03:38:15;;;;;;;;;;;;;;;4.53;77.80;94526.88;4955560;29;1050;-53
2023/04/03 03:40:41;;;;;;;;;;;;;;;4.51;77.42;94521.72;4955586;29;976;-53
2023/04/03 03:43:07;;;;;;;;;;;;;;;4.59;77.75;94526.31;4955288;29;1727;-53
2023/04/03 03:45:33;;;;;;;;;;;;;;;4.35;77.47;94522.28;4955290;29;1026;-53
2023/04/03 03:47:59;;;;;;;;;;;;;;;4.33;77.97;94515.47;4955332;29;1020;-53
2023/04/03 03:50:25;;;;;;;;;;;;;;;4.38;78.43;94522.03;4955346;29;985;-53
2023/04/03 03:52:51;;;;;;;;;;;;;;;4.50;78.08;94512.13;4955494;29;1045;-53
2023/04/03 03:55:17;;;;;;;;;;;;;;;4.59;77.71;94505.13;4955395;29;983;-53
2023/04/03 03:57:43;;;;;;;;;;;;;;;4.59;78.67;94524.53;4955163;29;1907;-54
2023/04/03 04:00:09;;;;;;;;;;;;;;;4.80;78.06;94518.22;4955245;29;987;-53
2023/04/03 04:02:35;;;;;;;;;;;;;;;4.77;77.53;94523.81;4955454;29;983;-53
2023/04/03 04:05:01;;;;;;;;;;;;;;;4.71;77.17;94517.25;4955419;29;1165;-52
2023/04/03 04:07:29;;;;;;;;;;;;;;;4.82;77.05;94522.41;4955209;29;1009;-52
2023/04/03 04:09:55;;;;;;;;;;;;;;;4.53;76.95;94527.72;4921428;29;1914;-52
2023/04/03 04:12:21;;;;;;;;;;;;;;;4.47;77.89;94529.09;4935958;29;1011;-52
2023/04/03 04:14:47;;;;;;;;;;;;;;;4.38;77.75;94540.56;4935927;29;2063;-52
2023/04/03 04:17:13;;;;;;;;;;;;;;;4.38;78.26;94531.75;4935719;29;1907;-52
2023/04/03 04:19:39;;;;;;;;;;;;;;;4.40;78.68;94543.03;4936174;29;1056;-52
2023/04/03 04:22:05;;;;;;;;;;;;;;;4.54;78.40;94547.09;4936097;29;1026;-52
2023/04/03 04:24:32;;;;;;;;;;;;;;;4.39;78.28;94547.50;4935732;29;1043;-51
2023/04/03 04:26:58;;;;;;;;;;;;;;;4.55;78.21;94540.81;4936040;29;968;-51
2023/04/03 04:29:24;;;;;;;;;;;;;;;4.83;77.62;94539.13;4935539;29;1019;-51
2023/04/03 04:31:50;;;;;;;;;;;;;;;4.73;77.87;94549.72;4935724;29;1031;-51
2023/04/03 04:34:16;;;;;;;;;;;;;;;4.79;77.38;94549.16;4935862;29;1034;-51
2023/04/03 04:36:42;;;;;;;;;;;;;;;4.75;77.30;94553.06;4939540;29;1966;-50
2023/04/03 04:39:08;;;;;;;;;;;;;;;4.94;77.48;94549.56;4939640;29;1758;-53
2023/04/03 04:41:34;;;;;;;;;;;;;;;5.12;76.54;94554.97;4939532;29;1566;-52
2023/04/03 04:44:00;;;;;;;;;;;;;;;4.82;77.92;94553.38;4939441;29;1093;-52
2023/04/03 04:46:26;;;;;;;;;;;;;;;4.81;77.73;94549.84;4939408;29;1077;-52
2023/04/03 04:48:52;;;;;;;;;;;;;;;4.93;77.83;94549.72;4939813;29;1049;-51
2023/04/03 04:51:18;;;;;;;;;;;;;;;4.98;77.60;94544.84;4939714;29;1228;-51
2023/04/03 04:53:44;;;;;;;;;;;;;;;5.28;76.69;94539.31;4939384;29;1086;-53
2023/04/03 04:56:11;;;;;;;;;;;;;;;5.43;76.15;94546.81;4939253;29;1911;-55
2023/04/03 04:58:37;;;;;;;;;;;;;;;5.47;76.15;94554.34;4939300;29;1225;-52
2023/04/03 05:01:03;;;;;;;;;;;;;;;5.14;76.95;94557.47;4939117;29;1291;-53
2023/04/03 05:03:29;;;;;;;;;;;;;;;5.15;77.56;94565.28;4938866;29;1055;-52
2023/04/03 05:05:56;;;;;;;;;;;;;;;5.32;76.86;94553.13;4939465;29;1030;-52
2023/04/03 05:08:22;;;;;;;;;;;;;;;5.57;76.87;94559.59;4939268;29;1153;-52
2023/04/03 05:10:48;;;;;;;;;;;;;;;5.45;76.90;94548.34;4939373;29;1051;-52
2023/04/03 05:13:14;;;;;;;;;;;;;;;5.51;77.22;94552.22;4939305;29;1026;-53
2023/04/03 05:15:40;;;;;;;;;;;;;;;5.46;77.94;94554.47;4938774;29;1992;-53
2023/04/03 05:18:06;;;;;;;;;;;;;;;5.53;77.23;94552.91;4938907;29;1035;-52
2023/04/03 05:20:32;;;;;;;;;;;;;;;5.55;77.43;94543.00;4939029;29;971;-53
2023/04/03 05:22:59;;;;;;;;;;;;;;;5.67;77.84;94539.19;4938891;29;1047;-52
2023/04/03 05:25:25;;;;;;;;;;;;;;;5.91;76.66;94537.81;4939007;29;1054;-53
2023/04/03 05:27:51;;;;;;;;;;;;;;;5.77;76.72;94544.47;4938867;29;1065;-52
2023/04/03 05:30:17;;;;;;;;;;;;;;;5.86;76.75;94532.09;4938890;29;1023;-51
2023/04/03 05:32:43;;;;;;;;;;;;;;;6.09;75.83;94529.09;4938683;29;1022;-52
2023/04/03 05:35:09;;;;;;;;;;;;;;;6.33;75.80;94534.66;4939011;29;987;-52
2023/04/03 05:37:35;;;;;;;;;;;;;;;6.30;75.92;94534.97;4938905;29;1989;-52
2023/04/03 05:40:02;;;;;;;;;;;;;;;6.32;75.49;94534.81;4939028;29;971;-52
2023/04/03 05:42:29;;;;;;;;;;;;;;;6.40;75.17;94534.91;4938426;29;1369;-53
2023/04/03 05:44:55;;;;;;;;;;;;;;;6.52;75.29;94532.84;4938829;29;921;-52
2023/04/03 05:47:21;;;;;;;;;;;;;;;6.54;74.74;94536.19;4937763;29;1106;-52
2023/04/03 05:49:47;;;;;;;;;;;;;;;6.82;73.60;94529.81;4938571;29;1059;-52
2023/04/03 05:52:25;;;;;;;;;;;;;;;6.96;72.95;94536.41;4938434;29;1099;-52
2023/04/03 05:54:51;;;;;;;;;;;;;;;7.22;72.47;94539.09;4938471;29;1038;-52
2023/04/03 05:57:18;;;;;;;;;;;;;;;7.44;71.72;94536.91;4938254;29;1910;-52
2023/04/03 05:59:45;;;;;;;;;;;;;;;7.42;72.95;94542.38;4938248;29;1123;-52
2023/04/03 06:02:12;;;;;;;;;;;;;;;7.22;73.74;94546.22;4938293;29;990;-53
2023/04/03 06:04:38;;;;;;;;;;;;;;;7.41;72.17;94537.22;4936797;29;1042;-53
2023/04/03 06:07:05;;;;;;;;;;;;;;;7.66;71.36;94548.00;4938121;29;960;-53
2023/04/03 06:09:31;;;;;;;;;;;;;;;7.70;70.73;94550.22;4951327;29;1161;-53
2023/04/03 06:11:58;;;;;;;;;;;;;;;7.61;71.28;94541.34;4956973;29;1058;-52
2023/04/03 06:14:25;;;;;;;;;;;;;;;7.77;71.54;94542.41;4956853;29;986;-52
2023/04/03 06:16:52;;;;;;;;;;;;;;;7.68;71.61;94540.69;4957039;29;1919;-53
2023/04/03 06:19:18;;;;;;;;;;;;;;;7.90;69.96;94534.00;4950188;29;1167;-53
2023/04/03 06:21:44;;;;;;;;;;;;;;;7.90;71.34;94528.66;4936470;29;1043;-52
2023/04/03 06:24:13;;;;;;;;;;;;;;;7.94;71.53;94546.81;4937018;29;1017;-52
2023/04/03 06:26:39;;;;;;;;;;;;;;;7.81;72.58;94538.44;4936996;29;1368;-52
2023/04/03 06:29:05;;;;;;;;;;;;;;;7.72;73.96;94539.38;4937875;29;1066;-52
2023/04/03 06:31:31;;;;;;;;;;;;;;;7.79;73.79;94546.56;4937560;29;1015;-52
2023/04/03 06:33:57;;;;;;;;;;;;;;;7.74;74.20;94540.91;4937102;29;1047;-53
2023/04/03 06:36:24;;;;;;;;;;;;;;;7.77;73.89;94527.28;4937559;29;1923;-52
2023/04/03 06:38:50;;;;;;;;;;;;;;;7.59;74.48;94531.84;4937660;29;1098;-52
2023/04/03 06:41:17;;;;;;;;;;;;;;;7.65;74.09;94541.03;4937765;29;974;-52
2023/04/03 06:43:43;;;;;;;;;;;;;;;7.80;73.54;94542.09;4930758;29;1386;-53
2023/04/03 06:46:14;;;;;;;;;;;;;;;7.93;72.63;94541.63;4937413;29;1193;-52
2023/04/03 06:48:40;;;;;;;;;;;;;;;7.92;72.15;94538.16;4937487;29;993;-53
2023/04/03 06:51:06;;;;;;;;;;;;;;;7.92;73.46;94543.47;4937522;29;976;-53
2023/04/03 06:53:32;;;;;;;;;;;;;;;8.08;73.04;94556.03;4937389;29;1181;-52
2023/04/03 06:55:58;;;;;;;;;;;;;;;8.18;71.87;94542.59;4936966;29;1919;-53
2023/04/03 06:58:24;;;;;;;;;;;;;;;8.28;70.93;94540.63;4936361;29;1010;-52
2023/04/03 07:00:50;;;;;;;;;;;;;;;8.54;70.67;94534.41;4937467;29;1051;-53
2023/04/03 07:03:16;;;;;;;;;;;;;;;8.62;69.96;94523.75;4937516;29;1054;-52
2023/04/03 07:05:44;;;;;;;;;;;;;;;8.70;71.40;94529.06;4937223;29;1101;-53
2023/04/03 07:08:10;;;;;;;;;;;;;;;8.90;69.96;94520.78;4939842;29;1205;-52
2023/04/03 07:10:37;;;;;;;;;;;;;;;8.99;69.58;94514.41;4956172;29;1129;-53
2023/04/03 07:13:04;;;;;;;;;;;;;;;9.04;70.88;94506.75;4956157;29;1172;-53
2023/04/03 07:15:30;;;;;;;;;;;;;;;9.30;71.01;94495.09;4948099;29;1158;-53
2023/04/03 07:17:56;;;;;;;;;;;;;;;9.51;70.16;94497.22;4936837;29;1902;-53
2023/04/03 07:20:22;;;;;;;;;;;;;;;9.71;69.35;94503.84;4937138;29;964;-53
2023/04/03 07:22:48;;;;;;;;;;;;;;;9.67;68.81;94501.66;4936797;29;1055;-53
2023/04/03 07:25:14;;;;;;;;;;;;;;;9.59;68.82;94489.16;4936501;29;1113;-53
2023/04/03 07:27:40;;;;;;;;;;;;;;;9.67;70.49;94486.47;4936952;29;964;-53
2023/04/03 07:30:07;;;;;;;;;;;;;;;9.64;69.25;94483.34;4936921;29;1036;-53
2023/04/03 07:32:33;;;;;;;;;;;;;;;9.64;69.07;94486.84;4936849;29;1192;-53
2023/04/03 07:34:59;;;;;;;;;;;;;;;9.63;68.67;94484.31;4936744;29;1240;-53
2023/04/03 07:37:26;;;;;;;;;;;;;;;9.55;68.84;94478.00;4936729;29;1899;-53
2023/04/03 07:39:52;;;;;;;;;;;;;;;9.74;68.17;94479.44;4936541;29;1110;-53
2023/04/03 07:42:18;;;;;;;;;;;;;;;10.19;66.70;94473.56;4936678;29;991;-53
2023/04/03 07:44:44;;;;;;;;;;;;;;;10.29;66.59;94472.34;4936196;29;1358;-53
2023/04/03 07:47:10;;;;;;;;;;;;;;;10.47;65.48;94469.44;4936626;29;1027;-53
2023/04/03 07:49:39;;;;;;;;;;;;;;;10.83;65.16;94474.19;4936435;29;1087;-53
2023/04/03 07:52:06;;;;;;;;;;;;;;;11.34;64.01;94462.88;4936403;29;1060;-53
2023/04/03 07:54:33;;;;;;;;;;;;;;;12.11;63.13;94469.72;4936282;29;1003;-53
2023/04/03 07:57:00;;;;;;;;;;;;;;;12.44;62.58;94471.97;4936169;29;1963;-53
2023/04/03 07:59:26;;;;;;;;;;;;;;;12.40;62.59;94473.38;4936434;29;1283;-53
2023/04/03 08:01:52;;;;;;;;;;;;;;;12.63;61.71;94457.13;4936452;29;1041;-53
2023/04/03 08:04:18;;;;;;;;;;;;;;;12.68;62.04;94460.88;4936245;29;997;-53
2023/04/03 08:06:44;;;;;;;;;;;;;;;12.91;60.15;94465.25;4936018;29;1054;-53
2023/04/03 08:09:10;;;;;;;;;;;;;;;13.08;59.30;94465.81;4946504;28;1220;-53
2023/04/03 08:11:38;;;;;;;;;;;;;;;13.31;58.07;94454.03;4955335;29;960;-53
2023/04/03 08:14:04;;;;;;;;;;;;;;;13.51;58.69;94455.03;4955472;29;980;-53
2023/04/03 08:16:30;;;;;;;;;;;;;;;13.52;57.52;94450.47;4941168;29;1986;-53
2023/04/03 08:18:56;;;;;;;;;;;;;;;13.47;57.01;94454.59;4936288;29;1046;-53
2023/04/03 08:21:22;;;;;;;;;;;;;;;13.59;56.60;94446.81;4936215;29;983;-52
2023/04/03 08:23:50;;;;;;;;;;;;;;;13.83;56.17;94436.63;4935858;29;1044;-52
2023/04/03 08:26:17;;;;;;;;;;;;;;;13.82;55.25;94437.66;4935537;29;1049;-53
2023/04/03 08:28:43;;;;;;;;;;;;;;;13.91;54.44;94433.78;4935224;29;1146;-53
2023/04/03 08:31:12;;;;;;;;;;;;;;;13.94;56.03;94425.28;4934496;29;1031;-53
2023/04/03 08:33:38;;;;;;;;;;;;;;;14.15;55.72;94432.44;4935190;29;1035;-53
2023/04/03 08:36:06;;;;;;;;;;;;;;;14.23;53.87;94429.56;4935399;29;1911;-52
2023/04/03 08:38:32;;;;;;;;;;;;;;;14.20;53.84;94434.50;4935646;29;1039;-53
2023/04/03 08:41:11;;;;;;;;;;;;;;;14.15;54.69;94434.28;4935803;29;1117;-53
2023/04/03 08:43:49;;;;;;;;;;;;;;;14.10;53.50;94432.19;4935566;29;1227;-53
2023/04/03 08:46:18;;;;;;;;;;;;;;;14.02;54.15;94424.31;4935497;29;1087;-52
2023/04/03 08:48:45;;;;;;;;;;;;;;;14.00;54.26;94415.59;4936209;29;968;-53
2023/04/03 08:51:16;;;;;;;;;;;;;;;14.02;54.14;94416.25;4935608;29;1007;-53
2023/04/03 08:53:47;;;;;;;;;;;;;;;13.99;53.25;94422.84;4935932;29;998;-54
2023/04/03 08:56:14;;;;;;;;;;;;;;;14.00;54.23;94416.44;4935564;29;1915;-53
2023/04/03 08:58:40;;;;;;;;;;;;;;;13.97;53.17;94416.84;4935600;29;1083;-53
2023/04/03 09:01:15;;;;;;;;;;;;;;;13.99;53.87;94414.78;4918791;29;989;-53
2023/04/03 09:03:41;;;;;;;;;;;;;;;14.05;53.03;94419.34;4935834;29;992;-53
2023/04/03 09:06:13;;;;;;;;;;;;;;;13.91;53.47;94408.75;4935591;29;1017;-53
2023/04/03 09:08:48;;;;;;;;;;;;;;;13.86;53.20;94402.09;4942516;29;1216;-53
2023/04/03 09:11:23;;;;;;;;;;;;;;;13.70;54.28;94397.09;4954760;29;1059;-53
2023/04/03 09:13:54;;;;;;;;;;;;;;;13.73;54.02;94391.28;4954637;29;1062;-53
2023/04/03 09:16:41;;;;;;;;;;;;;;;13.66;53.87;94390.44;4943740;29;1923;-53
2023/04/03 09:19:15;;;;;;;;;;;;;;;13.64;54.01;94385.28;4897208;29;1403;-53
2023/04/03 09:21:42;;;;;;;;;;;;;;;13.75;54.44;94374.97;4936114;29;1023;-54
2023/04/03 09:24:10;;;;;;;;;;;;;;;13.93;53.65;94374.47;4939218;29;1060;-53
2023/04/03 09:26:40;;;;;;;;;;;;;;;13.95;54.14;94375.09;4939079;29;1034;-53
2023/04/03 09:29:08;;;;;;;;;;;;;;;13.99;53.38;94369.09;4939196;29;996;-53
2023/04/03 09:31:39;;;;;;;;;;;;;;;14.06;53.25;94366.44;4939032;29;978;-54
2023/04/03 09:34:26;;;;;;;;;;;;;;;14.13;53.04;94361.06;4938780;29;1043;-53
2023/04/03 09:36:53;;;;;;;;;;;;;;;14.04;52.90;94352.38;4938753;29;2005;-53
2023/04/03 09:39:20;;;;;;;;;;;;;;;14.12;53.12;94348.69;4938656;29;1180;-53
2023/04/03 09:42:06;;;;;;;;;;;;;;;14.20;53.25;94359.22;4938799;29;976;-53
2023/04/03 09:45:05;;;;;;;;;;;;;;;14.15;53.06;94365.22;4911823;29;1439;-54
2023/04/03 09:47:35;;;;;;;;;;;;;;;14.14;53.18;94354.69;4895186;29;1062;-53
2023/04/03 09:50:14;;;;;;;;;;;;;;;14.06;52.78;94358.38;4900989;29;1058;-53
2023/04/03 09:52:40;;;;;;;;;;;;;;;14.03;53.35;94356.91;4900920;29;1023;-53
2023/04/03 09:55:08;;;;;;;;;;;;;;;13.99;53.56;94349.47;4900890;29;1059;-53
2023/04/03 09:57:34;;;;;;;;;;;;;;;13.99;52.91;94350.28;4900870;29;1990;-53
2023/04/03 10:00:01;;;;;;;;;;;;;;;13.97;53.31;94343.47;4881719;29;1279;-53
2023/04/03 10:02:33;;;;;;;;;;;;;;;14.00;53.85;94337.66;4881921;29;1007;-54
2023/04/03 10:04:59;;;;;;;;;;;;;;;14.09;53.32;94341.81;4881689;29;1051;-54
2023/04/03 10:07:26;;;;;;;;;;;;;;;14.02;53.17;94339.13;4881713;29;1051;-53
2023/04/03 10:09:57;;;;;;;;;;;;;;;13.97;52.83;94330.84;4881450;29;1249;-54
2023/04/03 10:12:23;;;;;;;;;;;;;;;13.98;52.76;94320.91;4881521;29;1043;-53
2023/04/03 10:15:00;;;;;;;;;;;;;;;13.93;53.46;94321.53;4881881;29;1046;-53
2023/04/03 10:17:34;;;;;;;;;;;;;;;14.00;52.64;94319.69;4881594;29;1915;-53
2023/04/03 10:20:19;;;;;;;;;;;;;;;14.06;52.45;94310.00;4899814;29;1469;-53
2023/04/03 10:22:48;;;;;;;;;;;;;;;14.08;53.06;94317.88;4900192;29;1030;-53
2023/04/03 10:25:17;;;;;;;;;;;;;;;14.10;53.21;94327.38;4900012;29;1043;-53
2023/04/03 10:27:59;;;;;;;;;;;;;;;14.20;52.14;94327.78;4899941;29;1362;-53
2023/04/03 10:30:28;;;;;;;;;;;;;;;14.16;52.42;94323.88;4881563;29;1038;-53
2023/04/03 10:33:00;;;;;;;;;;;;;;;14.19;52.32;94326.16;4880386;29;1040;-53
2023/04/03 10:35:36;;;;;;;;;;;;;;;14.14;52.41;94320.56;4881390;29;1048;-53
2023/04/03 10:38:20;;;;;;;;;;;;;;;14.20;52.15;94319.72;4880726;29;1907;-53
2023/04/03 10:41:06;;;;;;;;;;;;;;;14.21;52.30;94321.41;4881236;29;999;-54
2023/04/03 10:43:32;;;;;;;;;;;;;;;14.19;53.40;94328.00;4880936;29;1896;-53
2023/04/03 10:46:01;;;;;;;;;;;;;;;14.24;52.32;94326.34;4897114;29;1090;-53
2023/04/03 10:48:30;;;;;;;;;;;;;;;14.29;52.60;94320.38;4929011;29;1233;-56
2023/04/03 10:51:08;;;;;;;;;;;;;;;14.21;52.72;94307.97;4937735;29;1248;-52
2023/04/03 10:53:53;;;;;;;;;;;;;;;13.94;54.63;94301.69;4937446;29;1227;-53
2023/04/03 10:56:25;;;;;;;;;;;;;;;13.96;55.41;94312.22;4937410;29;1903;-53
2023/04/03 10:58:54;;;;;;;;;;;;;;;13.93;56.04;94309.97;4937131;29;1330;-53
2023/04/03 11:01:23;;;;;;;;;;;;;;;13.92;55.53;94306.44;4937413;29;1095;-53
2023/04/03 11:03:55;;;;;;;;;;;;;;;13.82;58.81;94300.63;4937322;29;1043;-53
2023/04/03 11:06:23;;;;;;;;;;;;;;;13.67;57.46;94304.28;4937048;29;1031;-53
2023/04/03 11:09:06;;;;;;;;;;;;;;;13.48;59.39;94294.28;4944738;29;1184;-53
2023/04/03 11:11:37;;;;;;;;;;;;;;;13.12;59.17;94292.63;4956288;29;1143;-52
2023/04/03 11:14:10;;;;;;;;;;;;;;;13.00;60.99;94288.84;4956239;29;1098;-52
2023/04/03 11:16:40;;;;;;;;;;;;;;;13.02;62.05;94293.00;4956151;29;1907;-52
2023/04/03 11:19:29;;;;;;;;;;;;;;;13.06;57.40;94286.19;4941037;29;1363;-52
2023/04/03 11:22:03;;;;;;;;;;;;;;;13.03;63.09;94285.75;4936878;29;1039;-51
2023/04/03 11:24:31;;;;;;;;;;;;;;;12.95;64.53;94292.09;4936758;29;1039;-52
2023/04/03 11:26:59;;;;;;;;;;;;;;;12.89;67.26;94288.34;4936849;29;968;-52
2023/04/03 11:29:33;;;;;;;;;;;;;;;12.94;66.35;94292.31;4936784;29;1095;-52
2023/04/03 11:32:08;;;;;;;;;;;;;;;12.93;64.77;94291.47;4936914;29;953;-52
2023/04/03 11:34:38;;;;;;;;;;;;;;;12.92;68.49;94289.84;4936830;29;1230;-52
2023/04/03 11:37:11;;;;;;;;;;;;;;;12.86;71.53;94288.78;4936722;29;1907;-52
2023/04/03 11:39:38;;;;;;;;;;;;;;;12.80;71.30;94284.16;4936396;29;1238;-52
2023/04/03 11:42:15;;;;;;;;;;;;;;;12.91;74.01;94276.63;4936666;29;1054;-52
2023/04/03 11:44:41;;;;;;;;;;;;;;;12.91;65.62;94273.94;4935275;29;1259;-52
2023/04/03 11:47:10;;;;;;;;;;;;;;;12.91;69.93;94272.06;4936099;29;1295;-52
2023/04/03 11:49:56;;;;;;;;;;;;;;;12.98;71.13;94264.91;4936694;29;964;-52
2023/04/03 11:52:43;;;;;;;;;;;;;;;12.67;77.21;94260.78;4936311;29;1083;-52
2023/04/03 11:55:21;;;;;;;;;;;;;;;12.64;76.86;94261.16;4936220;29;1032;-52
2023/04/03 11:57:50;;;;;;;;;;;;;;;12.76;75.06;94247.22;4936243;29;1989;-52
2023/04/03 12:00:35;;;;;;;;;;;;;;;12.75;73.42;94242.88;4936180;29;1027;-52
2023/04/03 12:03:01;;;;;;;;;;;;;;;12.77;75.78;94247.03;4936293;29;1591;-52
2023/04/03 12:05:29;;;;;;;;;;;;;;;12.75;70.74;94248.22;4936107;29;1054;-52
2023/04/03 12:08:14;;;;;;;;;;;;;;;12.46;70.59;94250.09;4937110;29;1180;-52
2023/04/03 12:10:40;;;;;;;;;;;;;;;12.19;72.33;94255.25;4955173;29;1039;-52
2023/04/03 12:13:15;;;;;;;;;;;;;;;12.15;72.98;94243.25;4955438;29;1022;-52
2023/04/03 12:15:48;;;;;;;;;;;;;;;12.14;73.88;94249.66;4935715;29;1300;-52
2023/04/03 12:18:38;;;;;;;;;;;;;;;12.09;75.71;94236.81;4936248;29;1907;-52
2023/04/03 12:21:04;;;;;;;;;;;;;;;12.02;75.73;94227.88;4900559;29;1155;-52
2023/04/03 12:23:31;;;;;;;;;;;;;;;12.02;71.21;94222.53;4935883;29;1047;-52
2023/04/03 12:26:25;;;;;;;;;;;;;;;12.09;71.08;94226.09;4936031;29;1090;-52
2023/04/03 12:28:53;;;;;;;;;;;;;;;12.14;71.41;94228.22;4930097;29;2000;-52
2023/04/03 12:31:19;;;;;;;;;;;;;;;12.03;71.57;94221.53;4936173;29;987;-52
2023/04/03 12:34:05;;;;;;;;;;;;;;;11.92;72.49;94211.31;4935939;29;1062;-51
2023/04/03 12:36:54;;;;;;;;;;;;;;;11.97;72.72;94205.38;4935861;29;1915;-52
2023/04/03 12:39:25;;;;;;;;;;;;;;;11.86;71.67;94199.50;4925758;29;1926;-51
2023/04/03 12:42:23;;;;;;;;;;;;;;;11.87;73.59;94193.09;4935803;29;1031;-52
2023/04/03 12:44:55;;;;;;;;;;;;;;;11.76;70.38;94190.13;4893979;29;1402;-51
2023/04/03 12:47:21;;;;;;;;;;;;;;;11.65;72.06;94180.75;4897731;29;1007;-51
2023/04/03 12:49:49;;;;;;;;;;;;;;;11.72;73.04;94178.94;4897945;29;1206;-52
2023/04/03 12:52:19;;;;;;;;;;;;;;;11.89;73.79;94175.03;4897866;29;1028;-52
2023/04/03 12:54:46;;;;;;;;;;;;;;;11.95;74.59;94186.84;4898123;29;952;-52
2023/04/03 12:57:15;;;;;;;;;;;;;;;11.98;75.55;94182.94;4918683;29;2002;-52
2023/04/03 12:59:43;;;;;;;;;;;;;;;11.98;74.74;94185.63;4920410;29;1075;-52
2023/04/03 13:02:27;;;;;;;;;;;;;;;11.74;74.39;94192.97;4920489;29;1094;-52
2023/04/03 13:04:57;;;;;;;;;;;;;;;11.71;73.42;94190.69;4920397;29;1031;-52
2023/04/03 13:07:33;;;;;;;;;;;;;;;11.40;73.35;94194.50;4901444;29;1035;-52
2023/04/03 13:10:00;;;;;;;;;;;;;;;11.38;74.74;94191.16;4935181;29;1189;-52
2023/04/03 13:12:27;;;;;;;;;;;;;;;11.54;74.07;94184.75;4937993;29;971;-52